sensor_id;sensor_type;location;lat;lon;timestamp;P1;durP1;ratioP1;P2;durP2;ratioP2
75847;SDS011;65750;47.540;19.090;2023-06-14T00:01:46;3.90;;;2.93;;
75847;SDS011;65750;47.540;19.090;2023-06-14T00:04:15;4.68;;;3.33;;
75847;SDS011;65750;47.540;19.090;2023-06-14T00:06:43;4.82;;;2.97;;
75847;SDS011;65750;47.540;19.090;2023-06-14T00:09:11;4.93;;;3.25;;
75847;SDS011;65750;47.540;19.090;2023-06-14T00:11:39;4.47;;;3.10;;
75847;SDS011;65750;47.540;19.090;2023-06-14T00:14:06;5.13;;;3.13;;
75847;SDS011;65750;47.540;19.090;2023-06-14T00:16:33;4.82;;;3.10;;
75847;SDS011;65750;47.540;19.090;2023-06-14T00:19:01;6.55;;;3.50;;
75847;SDS011;65750;47.540;19.090;2023-06-14T00:21:31;4.97;;;3.30;;
75847;SDS011;65750;47.540;19.090;2023-06-14T00:23:58;5.65;;;3.35;;
75847;SDS011;65750;47.540;19.090;2023-06-14T00:26:25;5.43;;;3.53;;
75847;SDS011;65750;47.540;19.090;2023-06-14T00:28:53;6.75;;;3.75;;
75847;SDS011;65750;47.540;19.090;2023-06-14T00:31:20;5.25;;;3.47;;
75847;SDS011;65750;47.540;19.090;2023-06-14T00:33:47;4.62;;;3.30;;
75847;SDS011;65750;47.540;19.090;2023-06-14T00:36:15;5.65;;;3.70;;
75847;SDS011;65750;47.540;19.090;2023-06-14T00:38:43;5.20;;;3.50;;
75847;SDS011;65750;47.540;19.090;2023-06-14T00:41:10;4.75;;;3.45;;
75847;SDS011;65750;47.540;19.090;2023-06-14T00:43:38;4.62;;;3.40;;
75847;SDS011;65750;47.540;19.090;2023-06-14T00:46:05;4.85;;;3.33;;
75847;SDS011;65750;47.540;19.090;2023-06-14T00:48:32;5.25;;;3.28;;
75847;SDS011;65750;47.540;19.090;2023-06-14T00:51:00;4.43;;;3.43;;
75847;SDS011;65750;47.540;19.090;2023-06-14T00:53:29;4.53;;;3.15;;
75847;SDS011;65750;47.540;19.090;2023-06-14T00:56:01;5.00;;;3.25;;
75847;SDS011;65750;47.540;19.090;2023-06-14T00:58:28;5.78;;;3.47;;
75847;SDS011;65750;47.540;19.090;2023-06-14T01:00:56;4.93;;;3.78;;
75847;SDS011;65750;47.540;19.090;2023-06-14T01:03:23;5.23;;;3.63;;
75847;SDS011;65750;47.540;19.090;2023-06-14T01:05:51;4.70;;;3.40;;
75847;SDS011;65750;47.540;19.090;2023-06-14T01:08:29;5.00;;;3.40;;
75847;SDS011;65750;47.540;19.090;2023-06-14T01:11:05;4.50;;;3.12;;
75847;SDS011;65750;47.540;19.090;2023-06-14T01:13:36;5.60;;;3.55;;
75847;SDS011;65750;47.540;19.090;2023-06-14T01:16:05;6.23;;;3.53;;
75847;SDS011;65750;47.540;19.090;2023-06-14T01:18:34;5.03;;;3.37;;
75847;SDS011;65750;47.540;19.090;2023-06-14T01:21:01;4.35;;;3.25;;
75847;SDS011;65750;47.540;19.090;2023-06-14T01:23:32;4.75;;;3.60;;
75847;SDS011;65750;47.540;19.090;2023-06-14T01:25:59;7.65;;;3.70;;
75847;SDS011;65750;47.540;19.090;2023-06-14T01:28:30;5.53;;;3.53;;
75847;SDS011;65750;47.540;19.090;2023-06-14T01:30:59;5.95;;;3.60;;
75847;SDS011;65750;47.540;19.090;2023-06-14T01:33:32;5.28;;;3.58;;
75847;SDS011;65750;47.540;19.090;2023-06-14T01:35:59;4.82;;;3.80;;
75847;SDS011;65750;47.540;19.090;2023-06-14T01:38:29;5.03;;;3.53;;
75847;SDS011;65750;47.540;19.090;2023-06-14T01:40:59;4.43;;;3.20;;
75847;SDS011;65750;47.540;19.090;2023-06-14T01:43:27;4.80;;;3.50;;
75847;SDS011;65750;47.540;19.090;2023-06-14T01:45:56;5.03;;;3.50;;
75847;SDS011;65750;47.540;19.090;2023-06-14T01:48:26;7.57;;;4.12;;
75847;SDS011;65750;47.540;19.090;2023-06-14T01:50:53;4.43;;;3.35;;
75847;SDS011;65750;47.540;19.090;2023-06-14T01:53:21;5.20;;;3.73;;
75847;SDS011;65750;47.540;19.090;2023-06-14T01:55:48;5.95;;;3.70;;
75847;SDS011;65750;47.540;19.090;2023-06-14T01:58:16;4.62;;;3.17;;
75847;SDS011;65750;47.540;19.090;2023-06-14T02:00:44;4.25;;;3.30;;
75847;SDS011;65750;47.540;19.090;2023-06-14T02:03:13;4.78;;;3.58;;
75847;SDS011;65750;47.540;19.090;2023-06-14T02:05:40;4.93;;;3.50;;
75847;SDS011;65750;47.540;19.090;2023-06-14T02:08:07;4.65;;;3.40;;
75847;SDS011;65750;47.540;19.090;2023-06-14T02:10:36;4.95;;;3.60;;
75847;SDS011;65750;47.540;19.090;2023-06-14T02:13:04;4.82;;;3.45;;
75847;SDS011;65750;47.540;19.090;2023-06-14T02:15:32;4.55;;;3.40;;
75847;SDS011;65750;47.540;19.090;2023-06-14T02:18:01;4.83;;;3.20;;
75847;SDS011;65750;47.540;19.090;2023-06-14T02:20:28;5.30;;;3.60;;
75847;SDS011;65750;47.540;19.090;2023-06-14T02:22:56;4.53;;;3.10;;
75847;SDS011;65750;47.540;19.090;2023-06-14T02:25:23;4.57;;;3.40;;
75847;SDS011;65750;47.540;19.090;2023-06-14T02:27:53;4.62;;;3.40;;
75847;SDS011;65750;47.540;19.090;2023-06-14T02:30:20;4.30;;;3.27;;
75847;SDS011;65750;47.540;19.090;2023-06-14T02:32:49;5.25;;;3.58;;
75847;SDS011;65750;47.540;19.090;2023-06-14T02:35:16;4.90;;;3.60;;
75847;SDS011;65750;47.540;19.090;2023-06-14T02:37:43;4.15;;;3.03;;
75847;SDS011;65750;47.540;19.090;2023-06-14T02:40:11;4.85;;;3.40;;
75847;SDS011;65750;47.540;19.090;2023-06-14T02:42:38;5.50;;;3.37;;
75847;SDS011;65750;47.540;19.090;2023-06-14T02:45:06;4.82;;;3.30;;
75847;SDS011;65750;47.540;19.090;2023-06-14T02:47:34;4.87;;;3.10;;
75847;SDS011;65750;47.540;19.090;2023-06-14T02:50:03;4.62;;;3.40;;
75847;SDS011;65750;47.540;19.090;2023-06-14T02:52:30;4.78;;;3.47;;
75847;SDS011;65750;47.540;19.090;2023-06-14T02:54:58;5.47;;;3.70;;
75847;SDS011;65750;47.540;19.090;2023-06-14T02:57:26;4.65;;;3.33;;
75847;SDS011;65750;47.540;19.090;2023-06-14T02:59:53;5.18;;;3.60;;
75847;SDS011;65750;47.540;19.090;2023-06-14T03:02:20;5.12;;;3.42;;
75847;SDS011;65750;47.540;19.090;2023-06-14T03:04:48;5.07;;;3.40;;
75847;SDS011;65750;47.540;19.090;2023-06-14T03:07:18;4.53;;;3.40;;
75847;SDS011;65750;47.540;19.090;2023-06-14T03:09:45;5.43;;;3.90;;
75847;SDS011;65750;47.540;19.090;2023-06-14T03:12:12;5.45;;;3.90;;
75847;SDS011;65750;47.540;19.090;2023-06-14T03:14:40;5.15;;;3.60;;
75847;SDS011;65750;47.540;19.090;2023-06-14T03:17:11;4.50;;;3.47;;
75847;SDS011;65750;47.540;19.090;2023-06-14T03:19:38;6.17;;;3.80;;
75847;SDS011;65750;47.540;19.090;2023-06-14T03:22:06;5.55;;;3.47;;
75847;SDS011;65750;47.540;19.090;2023-06-14T03:24:36;5.07;;;3.65;;
75847;SDS011;65750;47.540;19.090;2023-06-14T03:27:05;4.95;;;3.20;;
75847;SDS011;65750;47.540;19.090;2023-06-14T03:29:32;5.75;;;3.50;;
75847;SDS011;65750;47.540;19.090;2023-06-14T03:32:00;4.73;;;3.40;;
75847;SDS011;65750;47.540;19.090;2023-06-14T03:34:32;6.28;;;3.50;;
75847;SDS011;65750;47.540;19.090;2023-06-14T03:36:59;5.28;;;3.55;;
75847;SDS011;65750;47.540;19.090;2023-06-14T03:39:27;5.50;;;3.78;;
75847;SDS011;65750;47.540;19.090;2023-06-14T03:41:56;5.62;;;3.40;;
75847;SDS011;65750;47.540;19.090;2023-06-14T03:44:26;6.13;;;3.53;;
75847;SDS011;65750;47.540;19.090;2023-06-14T03:46:53;5.68;;;4.03;;
75847;SDS011;65750;47.540;19.090;2023-06-14T03:49:21;5.28;;;3.20;;
75847;SDS011;65750;47.540;19.090;2023-06-14T03:51:48;4.85;;;3.75;;
75847;SDS011;65750;47.540;19.090;2023-06-14T03:54:17;5.35;;;3.90;;
75847;SDS011;65750;47.540;19.090;2023-06-14T03:56:45;5.30;;;3.60;;
75847;SDS011;65750;47.540;19.090;2023-06-14T03:59:14;4.85;;;3.75;;
75847;SDS011;65750;47.540;19.090;2023-06-14T04:01:42;6.37;;;3.47;;
75847;SDS011;65750;47.540;19.090;2023-06-14T04:04:10;4.93;;;3.53;;
75847;SDS011;65750;47.540;19.090;2023-06-14T04:06:37;5.35;;;3.53;;
75847;SDS011;65750;47.540;19.090;2023-06-14T04:09:05;5.83;;;3.57;;
75847;SDS011;65750;47.540;19.090;2023-06-14T04:11:33;5.00;;;3.65;;
75847;SDS011;65750;47.540;19.090;2023-06-14T04:14:01;5.25;;;3.65;;
75847;SDS011;65750;47.540;19.090;2023-06-14T04:16:30;4.90;;;3.80;;
75847;SDS011;65750;47.540;19.090;2023-06-14T04:18:58;5.75;;;4.05;;
75847;SDS011;65750;47.540;19.090;2023-06-14T04:21:25;4.50;;;3.40;;
75847;SDS011;65750;47.540;19.090;2023-06-14T04:23:54;4.90;;;3.40;;
75847;SDS011;65750;47.540;19.090;2023-06-14T04:26:22;5.07;;;3.67;;
75847;SDS011;65750;47.540;19.090;2023-06-14T04:28:55;4.93;;;3.58;;
75847;SDS011;65750;47.540;19.090;2023-06-14T04:31:27;6.07;;;3.72;;
75847;SDS011;65750;47.540;19.090;2023-06-14T04:33:56;5.60;;;3.60;;
75847;SDS011;65750;47.540;19.090;2023-06-14T04:36:24;5.37;;;4.00;;
75847;SDS011;65750;47.540;19.090;2023-06-14T04:38:54;6.07;;;4.32;;
75847;SDS011;65750;47.540;19.090;2023-06-14T04:41:22;5.30;;;3.83;;
75847;SDS011;65750;47.540;19.090;2023-06-14T04:43:56;6.00;;;4.00;;
75847;SDS011;65750;47.540;19.090;2023-06-14T04:46:27;6.50;;;4.27;;
75847;SDS011;65750;47.540;19.090;2023-06-14T04:48:57;6.35;;;4.32;;
75847;SDS011;65750;47.540;19.090;2023-06-14T04:51:28;7.07;;;5.03;;
75847;SDS011;65750;47.540;19.090;2023-06-14T04:53:57;7.12;;;5.25;;
75847;SDS011;65750;47.540;19.090;2023-06-14T04:56:24;8.00;;;5.10;;
75847;SDS011;65750;47.540;19.090;2023-06-14T04:58:51;7.50;;;5.03;;
75847;SDS011;65750;47.540;19.090;2023-06-14T05:01:20;7.72;;;5.30;;
75847;SDS011;65750;47.540;19.090;2023-06-14T05:03:48;7.22;;;5.37;;
75847;SDS011;65750;47.540;19.090;2023-06-14T05:06:17;8.35;;;5.43;;
75847;SDS011;65750;47.540;19.090;2023-06-14T05:08:45;6.60;;;4.90;;
75847;SDS011;65750;47.540;19.090;2023-06-14T05:11:13;7.37;;;5.00;;
75847;SDS011;65750;47.540;19.090;2023-06-14T05:13:40;8.30;;;5.37;;
75847;SDS011;65750;47.540;19.090;2023-06-14T05:16:08;8.45;;;5.22;;
75847;SDS011;65750;47.540;19.090;2023-06-14T05:18:35;7.25;;;5.22;;
75847;SDS011;65750;47.540;19.090;2023-06-14T05:21:03;6.95;;;5.07;;
75847;SDS011;65750;47.540;19.090;2023-06-14T05:23:32;7.37;;;4.93;;
75847;SDS011;65750;47.540;19.090;2023-06-14T05:25:59;7.45;;;5.03;;
75847;SDS011;65750;47.540;19.090;2023-06-14T05:28:28;7.75;;;4.82;;
75847;SDS011;65750;47.540;19.090;2023-06-14T05:30:56;7.37;;;4.95;;
75847;SDS011;65750;47.540;19.090;2023-06-14T05:33:23;8.00;;;5.47;;
75847;SDS011;65750;47.540;19.090;2023-06-14T05:35:50;6.87;;;4.83;;
75847;SDS011;65750;47.540;19.090;2023-06-14T05:38:17;8.27;;;5.20;;
75847;SDS011;65750;47.540;19.090;2023-06-14T05:40:46;7.45;;;5.00;;
75847;SDS011;65750;47.540;19.090;2023-06-14T05:43:13;7.15;;;4.78;;
75847;SDS011;65750;47.540;19.090;2023-06-14T05:45:40;7.22;;;5.22;;
75847;SDS011;65750;47.540;19.090;2023-06-14T05:48:08;6.67;;;5.00;;
75847;SDS011;65750;47.540;19.090;2023-06-14T05:50:34;7.28;;;4.90;;
75847;SDS011;65750;47.540;19.090;2023-06-14T05:53:02;7.78;;;5.20;;
75847;SDS011;65750;47.540;19.090;2023-06-14T05:55:29;7.40;;;4.90;;
75847;SDS011;65750;47.540;19.090;2023-06-14T05:57:57;6.82;;;4.78;;
75847;SDS011;65750;47.540;19.090;2023-06-14T06:00:25;7.13;;;4.57;;
75847;SDS011;65750;47.540;19.090;2023-06-14T06:02:53;7.62;;;5.20;;
75847;SDS011;65750;47.540;19.090;2023-06-14T06:05:22;9.63;;;5.07;;
75847;SDS011;65750;47.540;19.090;2023-06-14T06:07:49;6.97;;;4.68;;
75847;SDS011;65750;47.540;19.090;2023-06-14T06:10:17;6.82;;;5.00;;
75847;SDS011;65750;47.540;19.090;2023-06-14T06:12:44;7.63;;;4.40;;
75847;SDS011;65750;47.540;19.090;2023-06-14T06:15:14;12.20;;;5.00;;
75847;SDS011;65750;47.540;19.090;2023-06-14T06:17:41;7.28;;;4.70;;
75847;SDS011;65750;47.540;19.090;2023-06-14T06:20:09;8.18;;;5.20;;
75847;SDS011;65750;47.540;19.090;2023-06-14T06:22:37;7.93;;;4.85;;
75847;SDS011;65750;47.540;19.090;2023-06-14T06:25:05;8.37;;;5.00;;
75847;SDS011;65750;47.540;19.090;2023-06-14T06:27:33;8.15;;;4.93;;
75847;SDS011;65750;47.540;19.090;2023-06-14T06:30:01;12.23;;;5.07;;
75847;SDS011;65750;47.540;19.090;2023-06-14T06:32:30;9.02;;;4.87;;
75847;SDS011;65750;47.540;19.090;2023-06-14T06:34:56;10.88;;;5.05;;
75847;SDS011;65750;47.540;19.090;2023-06-14T06:37:25;9.70;;;5.00;;
75847;SDS011;65750;47.540;19.090;2023-06-14T06:39:52;11.50;;;5.40;;
75847;SDS011;65750;47.540;19.090;2023-06-14T06:42:19;13.75;;;5.95;;
75847;SDS011;65750;47.540;19.090;2023-06-14T06:44:48;11.35;;;5.30;;
75847;SDS011;65750;47.540;19.090;2023-06-14T06:47:16;11.57;;;5.80;;
75847;SDS011;65750;47.540;19.090;2023-06-14T06:49:45;7.43;;;4.80;;
75847;SDS011;65750;47.540;19.090;2023-06-14T06:52:12;10.43;;;5.32;;
75847;SDS011;65750;47.540;19.090;2023-06-14T06:54:39;12.02;;;5.30;;
75847;SDS011;65750;47.540;19.090;2023-06-14T06:57:06;10.20;;;5.72;;
75847;SDS011;65750;47.540;19.090;2023-06-14T06:59:33;10.02;;;5.72;;
75847;SDS011;65750;47.540;19.090;2023-06-14T07:02:01;8.57;;;5.17;;
75847;SDS011;65750;47.540;19.090;2023-06-14T07:04:27;10.10;;;5.60;;
75847;SDS011;65750;47.540;19.090;2023-06-14T07:06:56;9.60;;;5.72;;
75847;SDS011;65750;47.540;19.090;2023-06-14T07:09:23;7.90;;;5.37;;
75847;SDS011;65750;47.540;19.090;2023-06-14T07:11:51;8.45;;;4.87;;
75847;SDS011;65750;47.540;19.090;2023-06-14T07:14:18;7.57;;;5.20;;
75847;SDS011;65750;47.540;19.090;2023-06-14T07:16:48;8.45;;;5.15;;
75847;SDS011;65750;47.540;19.090;2023-06-14T07:19:15;8.50;;;5.43;;
75847;SDS011;65750;47.540;19.090;2023-06-14T07:21:43;8.18;;;5.05;;
75847;SDS011;65750;47.540;19.090;2023-06-14T07:24:12;9.48;;;5.28;;
75847;SDS011;65750;47.540;19.090;2023-06-14T07:26:39;7.73;;;4.70;;
75847;SDS011;65750;47.540;19.090;2023-06-14T07:29:06;9.45;;;5.55;;
75847;SDS011;65750;47.540;19.090;2023-06-14T07:31:34;7.87;;;4.70;;
75847;SDS011;65750;47.540;19.090;2023-06-14T07:34:01;7.45;;;4.55;;
75847;SDS011;65750;47.540;19.090;2023-06-14T07:36:29;7.32;;;4.85;;
75847;SDS011;65750;47.540;19.090;2023-06-14T07:38:56;6.60;;;4.70;;
75847;SDS011;65750;47.540;19.090;2023-06-14T07:41:24;6.68;;;4.57;;
75847;SDS011;65750;47.540;19.090;2023-06-14T07:43:52;8.48;;;4.87;;
75847;SDS011;65750;47.540;19.090;2023-06-14T07:46:19;6.07;;;4.28;;
75847;SDS011;65750;47.540;19.090;2023-06-14T07:48:46;6.72;;;4.60;;
75847;SDS011;65750;47.540;19.090;2023-06-14T07:51:14;7.73;;;4.67;;
75847;SDS011;65750;47.540;19.090;2023-06-14T07:53:41;7.15;;;4.60;;
75847;SDS011;65750;47.540;19.090;2023-06-14T07:56:08;7.50;;;4.55;;
75847;SDS011;65750;47.540;19.090;2023-06-14T07:58:37;6.35;;;4.40;;
75847;SDS011;65750;47.540;19.090;2023-06-14T08:01:04;7.00;;;4.50;;
75847;SDS011;65750;47.540;19.090;2023-06-14T08:03:33;7.17;;;4.27;;
75847;SDS011;65750;47.540;19.090;2023-06-14T08:06:01;7.90;;;4.55;;
75847;SDS011;65750;47.540;19.090;2023-06-14T08:08:28;6.70;;;4.72;;
75847;SDS011;65750;47.540;19.090;2023-06-14T08:10:56;6.82;;;4.53;;
75847;SDS011;65750;47.540;19.090;2023-06-14T08:13:23;8.25;;;4.47;;
75847;SDS011;65750;47.540;19.090;2023-06-14T08:15:51;6.43;;;4.20;;
75847;SDS011;65750;47.540;19.090;2023-06-14T08:18:19;6.70;;;4.20;;
75847;SDS011;65750;47.540;19.090;2023-06-14T08:20:46;7.37;;;4.12;;
75847;SDS011;65750;47.540;19.090;2023-06-14T08:23:13;7.25;;;4.45;;
75847;SDS011;65750;47.540;19.090;2023-06-14T08:25:41;6.37;;;3.92;;
75847;SDS011;65750;47.540;19.090;2023-06-14T08:28:08;6.77;;;4.60;;
75847;SDS011;65750;47.540;19.090;2023-06-14T08:30:35;5.85;;;4.12;;
75847;SDS011;65750;47.540;19.090;2023-06-14T08:33:04;7.15;;;4.68;;
75847;SDS011;65750;47.540;19.090;2023-06-14T08:35:31;6.22;;;4.43;;
75847;SDS011;65750;47.540;19.090;2023-06-14T08:37:58;7.55;;;4.65;;
75847;SDS011;65750;47.540;19.090;2023-06-14T08:40:26;6.97;;;4.60;;
75847;SDS011;65750;47.540;19.090;2023-06-14T08:42:54;7.80;;;4.25;;
75847;SDS011;65750;47.540;19.090;2023-06-14T08:45:22;6.03;;;3.92;;
75847;SDS011;65750;47.540;19.090;2023-06-14T08:47:51;8.57;;;4.37;;
75847;SDS011;65750;47.540;19.090;2023-06-14T08:50:24;8.48;;;4.32;;
75847;SDS011;65750;47.540;19.090;2023-06-14T08:52:56;7.70;;;4.53;;
75847;SDS011;65750;47.540;19.090;2023-06-14T08:55:26;8.43;;;4.65;;
75847;SDS011;65750;47.540;19.090;2023-06-14T08:57:54;17.42;;;5.68;;
75847;SDS011;65750;47.540;19.090;2023-06-14T09:00:23;20.12;;;6.75;;
75847;SDS011;65750;47.540;19.090;2023-06-14T09:02:51;26.15;;;7.35;;
75847;SDS011;65750;47.540;19.090;2023-06-14T09:05:21;35.70;;;8.83;;
75847;SDS011;65750;47.540;19.090;2023-06-14T09:07:50;38.95;;;11.43;;
75847;SDS011;65750;47.540;19.090;2023-06-14T09:10:18;43.67;;;11.30;;
75847;SDS011;65750;47.540;19.090;2023-06-14T09:12:45;56.60;;;13.52;;
75847;SDS011;65750;47.540;19.090;2023-06-14T09:15:13;51.47;;;12.95;;
75847;SDS011;65750;47.540;19.090;2023-06-14T09:17:40;45.93;;;12.23;;
75847;SDS011;65750;47.540;19.090;2023-06-14T09:20:08;47.42;;;12.15;;
75847;SDS011;65750;47.540;19.090;2023-06-14T09:22:36;39.33;;;11.75;;
75847;SDS011;65750;47.540;19.090;2023-06-14T09:25:06;43.80;;;11.38;;
75847;SDS011;65750;47.540;19.090;2023-06-14T09:27:33;37.83;;;10.43;;
75847;SDS011;65750;47.540;19.090;2023-06-14T09:30:02;38.60;;;10.10;;
75847;SDS011;65750;47.540;19.090;2023-06-14T09:32:29;31.70;;;10.02;;
75847;SDS011;65750;47.540;19.090;2023-06-14T09:34:56;37.92;;;10.77;;
75847;SDS011;65750;47.540;19.090;2023-06-14T09:37:28;31.52;;;9.50;;
75847;SDS011;65750;47.540;19.090;2023-06-14T09:39:56;32.40;;;9.10;;
75847;SDS011;65750;47.540;19.090;2023-06-14T09:42:24;31.80;;;8.50;;
75847;SDS011;65750;47.540;19.090;2023-06-14T09:44:53;23.30;;;8.38;;
75847;SDS011;65750;47.540;19.090;2023-06-14T09:47:21;25.77;;;7.93;;
75847;SDS011;65750;47.540;19.090;2023-06-14T09:49:48;27.10;;;8.68;;
75847;SDS011;65750;47.540;19.090;2023-06-14T09:52:17;20.95;;;7.85;;
75847;SDS011;65750;47.540;19.090;2023-06-14T09:54:45;26.47;;;7.47;;
75847;SDS011;65750;47.540;19.090;2023-06-14T09:57:13;20.77;;;7.57;;
75847;SDS011;65750;47.540;19.090;2023-06-14T09:59:44;19.17;;;7.00;;
75847;SDS011;65750;47.540;19.090;2023-06-14T10:02:14;20.80;;;7.40;;
75847;SDS011;65750;47.540;19.090;2023-06-14T10:04:46;22.92;;;7.60;;
75847;SDS011;65750;47.540;19.090;2023-06-14T10:07:18;22.33;;;7.50;;
75847;SDS011;65750;47.540;19.090;2023-06-14T10:09:47;19.70;;;7.22;;
75847;SDS011;65750;47.540;19.090;2023-06-14T10:12:16;21.17;;;6.75;;
75847;SDS011;65750;47.540;19.090;2023-06-14T10:14:48;17.83;;;6.25;;
75847;SDS011;65750;47.540;19.090;2023-06-14T10:17:18;14.90;;;6.47;;
75847;SDS011;65750;47.540;19.090;2023-06-14T10:19:50;16.50;;;7.03;;
75847;SDS011;65750;47.540;19.090;2023-06-14T10:22:23;15.88;;;6.90;;
75847;SDS011;65750;47.540;19.090;2023-06-14T10:24:55;15.65;;;6.07;;
75847;SDS011;65750;47.540;19.090;2023-06-14T10:27:23;16.02;;;6.57;;
75847;SDS011;65750;47.540;19.090;2023-06-14T10:30:04;17.45;;;6.87;;
75847;SDS011;65750;47.540;19.090;2023-06-14T10:32:34;14.37;;;6.80;;
75847;SDS011;65750;47.540;19.090;2023-06-14T10:35:05;14.87;;;6.35;;
75847;SDS011;65750;47.540;19.090;2023-06-14T10:37:32;14.57;;;6.47;;
75847;SDS011;65750;47.540;19.090;2023-06-14T10:40:00;16.12;;;6.30;;
75847;SDS011;65750;47.540;19.090;2023-06-14T10:42:28;14.02;;;6.05;;
75847;SDS011;65750;47.540;19.090;2023-06-14T10:44:56;13.90;;;6.43;;
75847;SDS011;65750;47.540;19.090;2023-06-14T10:47:27;15.50;;;6.18;;
75847;SDS011;65750;47.540;19.090;2023-06-14T10:49:55;12.50;;;6.00;;
75847;SDS011;65750;47.540;19.090;2023-06-14T10:52:25;14.20;;;6.00;;
75847;SDS011;65750;47.540;19.090;2023-06-14T10:55:06;14.95;;;5.80;;
75847;SDS011;65750;47.540;19.090;2023-06-14T10:57:38;13.50;;;5.80;;
75847;SDS011;65750;47.540;19.090;2023-06-14T11:00:07;12.93;;;5.87;;
75847;SDS011;65750;47.540;19.090;2023-06-14T11:05:49;15.05;;;5.57;;
75847;SDS011;65750;47.540;19.090;2023-06-14T11:08:22;12.98;;;6.18;;
75847;SDS011;65750;47.540;19.090;2023-06-14T11:11:12;12.23;;;5.90;;
75847;SDS011;65750;47.540;19.090;2023-06-14T11:13:41;10.35;;;5.22;;
75847;SDS011;65750;47.540;19.090;2023-06-14T11:16:12;11.30;;;5.32;;
75847;SDS011;65750;47.540;19.090;2023-06-14T11:18:40;13.00;;;5.68;;
75847;SDS011;65750;47.540;19.090;2023-06-14T11:21:09;10.65;;;5.40;;
75847;SDS011;65750;47.540;19.090;2023-06-14T11:23:36;12.40;;;5.37;;
75847;SDS011;65750;47.540;19.090;2023-06-14T11:26:04;11.20;;;5.40;;
75847;SDS011;65750;47.540;19.090;2023-06-14T11:28:37;15.70;;;6.25;;
75847;SDS011;65750;47.540;19.090;2023-06-14T11:31:06;11.30;;;5.20;;
75847;SDS011;65750;47.540;19.090;2023-06-14T11:33:33;12.02;;;5.45;;
75847;SDS011;65750;47.540;19.090;2023-06-14T11:36:02;10.90;;;5.10;;
75847;SDS011;65750;47.540;19.090;2023-06-14T11:38:34;10.10;;;4.80;;
75847;SDS011;65750;47.540;19.090;2023-06-14T11:41:02;9.73;;;4.90;;
75847;SDS011;65750;47.540;19.090;2023-06-14T11:43:29;11.70;;;5.45;;
75847;SDS011;65750;47.540;19.090;2023-06-14T11:45:58;9.85;;;5.15;;
75847;SDS011;65750;47.540;19.090;2023-06-14T11:48:35;9.70;;;5.00;;
75847;SDS011;65750;47.540;19.090;2023-06-14T11:51:03;10.88;;;4.97;;
75847;SDS011;65750;47.540;19.090;2023-06-14T11:53:31;9.73;;;4.60;;
75847;SDS011;65750;47.540;19.090;2023-06-14T11:55:59;8.63;;;4.53;;
75847;SDS011;65750;47.540;19.090;2023-06-14T11:58:26;10.93;;;4.60;;
75847;SDS011;65750;47.540;19.090;2023-06-14T12:00:53;7.23;;;4.20;;
75847;SDS011;65750;47.540;19.090;2023-06-14T12:03:23;11.45;;;5.18;;
75847;SDS011;65750;47.540;19.090;2023-06-14T12:06:01;8.70;;;4.32;;
75847;SDS011;65750;47.540;19.090;2023-06-14T12:08:34;8.90;;;4.70;;
75847;SDS011;65750;47.540;19.090;2023-06-14T12:11:04;9.00;;;4.57;;
75847;SDS011;65750;47.540;19.090;2023-06-14T12:13:34;8.27;;;4.67;;
75847;SDS011;65750;47.540;19.090;2023-06-14T12:16:02;7.97;;;4.43;;
75847;SDS011;65750;47.540;19.090;2023-06-14T12:18:33;9.50;;;4.28;;
75847;SDS011;65750;47.540;19.090;2023-06-14T12:21:01;8.38;;;4.40;;
75847;SDS011;65750;47.540;19.090;2023-06-14T12:23:44;7.25;;;3.97;;
75847;SDS011;65750;47.540;19.090;2023-06-14T12:26:12;11.17;;;4.83;;
75847;SDS011;65750;47.540;19.090;2023-06-14T12:28:40;7.15;;;4.10;;
75847;SDS011;65750;47.540;19.090;2023-06-14T12:31:08;7.93;;;4.30;;
75847;SDS011;65750;47.540;19.090;2023-06-14T12:33:35;7.95;;;4.55;;
75847;SDS011;65750;47.540;19.090;2023-06-14T12:36:03;8.32;;;4.12;;
75847;SDS011;65750;47.540;19.090;2023-06-14T12:38:31;6.80;;;4.13;;
75847;SDS011;65750;47.540;19.090;2023-06-14T12:41:00;9.88;;;4.20;;
75847;SDS011;65750;47.540;19.090;2023-06-14T12:43:27;6.72;;;4.10;;
75847;SDS011;65750;47.540;19.090;2023-06-14T12:45:54;6.68;;;4.00;;
75847;SDS011;65750;47.540;19.090;2023-06-14T12:48:21;7.37;;;3.90;;
75847;SDS011;65750;47.540;19.090;2023-06-14T12:50:49;6.77;;;3.70;;
75847;SDS011;65750;47.540;19.090;2023-06-14T12:53:16;7.65;;;4.15;;
75847;SDS011;65750;47.540;19.090;2023-06-14T12:55:43;6.80;;;4.43;;
75847;SDS011;65750;47.540;19.090;2023-06-14T12:58:11;5.97;;;3.95;;
75847;SDS011;65750;47.540;19.090;2023-06-14T13:00:39;6.72;;;4.20;;
75847;SDS011;65750;47.540;19.090;2023-06-14T13:03:06;7.13;;;3.90;;
75847;SDS011;65750;47.540;19.090;2023-06-14T13:05:33;6.57;;;4.12;;
75847;SDS011;65750;47.540;19.090;2023-06-14T13:08:00;5.75;;;3.62;;
75847;SDS011;65750;47.540;19.090;2023-06-14T13:10:28;6.30;;;3.90;;
75847;SDS011;65750;47.540;19.090;2023-06-14T13:12:55;6.47;;;3.90;;
75847;SDS011;65750;47.540;19.090;2023-06-14T13:15:24;6.40;;;4.10;;
75847;SDS011;65750;47.540;19.090;2023-06-14T13:17:52;5.65;;;4.15;;
75847;SDS011;65750;47.540;19.090;2023-06-14T13:20:19;6.20;;;3.80;;
75847;SDS011;65750;47.540;19.090;2023-06-14T13:22:46;5.50;;;3.70;;
75847;SDS011;65750;47.540;19.090;2023-06-14T13:25:13;5.40;;;3.58;;
75847;SDS011;65750;47.540;19.090;2023-06-14T13:27:40;5.77;;;3.60;;
75847;SDS011;65750;47.540;19.090;2023-06-14T13:30:07;4.62;;;3.70;;
75847;SDS011;65750;47.540;19.090;2023-06-14T13:32:37;6.03;;;3.58;;
75847;SDS011;65750;47.540;19.090;2023-06-14T13:35:04;7.28;;;4.00;;
75847;SDS011;65750;47.540;19.090;2023-06-14T13:37:32;5.57;;;3.72;;
75847;SDS011;65750;47.540;19.090;2023-06-14T13:39:59;5.90;;;3.30;;
75847;SDS011;65750;47.540;19.090;2023-06-14T13:42:26;5.70;;;3.55;;
75847;SDS011;65750;47.540;19.090;2023-06-14T13:44:56;4.57;;;3.40;;
75847;SDS011;65750;47.540;19.090;2023-06-14T13:47:25;6.03;;;3.67;;
75847;SDS011;65750;47.540;19.090;2023-06-14T13:49:53;5.95;;;3.47;;
75847;SDS011;65750;47.540;19.090;2023-06-14T13:52:21;6.30;;;3.77;;
75847;SDS011;65750;47.540;19.090;2023-06-14T13:54:51;5.22;;;3.70;;
75847;SDS011;65750;47.540;19.090;2023-06-14T13:57:18;5.62;;;3.47;;
75847;SDS011;65750;47.540;19.090;2023-06-14T13:59:44;5.20;;;3.70;;
75847;SDS011;65750;47.540;19.090;2023-06-14T14:02:12;6.10;;;3.80;;
75847;SDS011;65750;47.540;19.090;2023-06-14T14:04:40;5.67;;;3.50;;
75847;SDS011;65750;47.540;19.090;2023-06-14T14:07:08;5.65;;;3.62;;
75847;SDS011;65750;47.540;19.090;2023-06-14T14:09:35;5.40;;;3.45;;
75847;SDS011;65750;47.540;19.090;2023-06-14T14:12:04;5.55;;;3.37;;
75847;SDS011;65750;47.540;19.090;2023-06-14T14:14:32;5.87;;;3.72;;
75847;SDS011;65750;47.540;19.090;2023-06-14T14:16:59;4.43;;;3.70;;
75847;SDS011;65750;47.540;19.090;2023-06-14T14:19:26;4.75;;;3.42;;
75847;SDS011;65750;47.540;19.090;2023-06-14T14:21:54;4.78;;;3.42;;
75847;SDS011;65750;47.540;19.090;2023-06-14T14:24:22;4.65;;;3.67;;
75847;SDS011;65750;47.540;19.090;2023-06-14T14:26:50;4.80;;;3.40;;
75847;SDS011;65750;47.540;19.090;2023-06-14T14:29:19;4.30;;;3.20;;
75847;SDS011;65750;47.540;19.090;2023-06-14T14:31:46;5.93;;;3.70;;
75847;SDS011;65750;47.540;19.090;2023-06-14T14:34:13;4.65;;;3.47;;
75847;SDS011;65750;47.540;19.090;2023-06-14T14:36:40;4.53;;;3.15;;
75847;SDS011;65750;47.540;19.090;2023-06-14T14:39:07;5.12;;;3.70;;
75847;SDS011;65750;47.540;19.090;2023-06-14T14:41:36;4.40;;;3.17;;